createdAt,value
2023-05-08T00:00:06.648Z,6.10
2023-05-08T00:02:33.713Z,6.13
2023-05-08T00:05:01.009Z,5.90
2023-05-08T00:07:29.129Z,6.30
2023-05-08T00:09:56.349Z,6.30
2023-05-08T00:12:23.492Z,6.65
2023-05-08T00:14:50.879Z,6.35
2023-05-08T00:17:18.204Z,5.53
2023-05-08T00:19:45.555Z,5.05
2023-05-08T00:22:12.828Z,5.10
2023-05-08T00:24:41.390Z,5.30
2023-05-08T00:27:08.682Z,5.90
2023-05-08T00:29:36.066Z,6.53
2023-05-08T00:32:03.489Z,6.45
2023-05-08T00:34:30.760Z,7.13
2023-05-08T00:36:58.087Z,6.90
2023-05-08T00:39:25.684Z,7.32
2023-05-08T00:41:53.183Z,6.22
2023-05-08T00:44:22.793Z,6.40
2023-05-08T00:46:50.700Z,7.45
2023-05-08T00:49:20.987Z,5.40
2023-05-08T00:51:51.475Z,8.50
2023-05-08T00:54:19.596Z,6.78
2023-05-08T00:56:48.881Z,6.13
2023-05-08T00:59:18.195Z,7.20
2023-05-08T01:01:48.774Z,5.80
2023-05-08T01:04:19.663Z,7.50
2023-05-08T01:06:46.903Z,6.25
2023-05-08T01:09:14.381Z,6.28
2023-05-08T01:12:11.580Z,7.60
2023-05-08T01:15:29.234Z,7.88
2023-05-08T01:18:15.330Z,6.40
2023-05-08T01:21:29.581Z,6.32
2023-05-08T01:24:26.941Z,6.38
2023-05-08T01:27:32.278Z,6.65
2023-05-08T01:30:33.676Z,6.00
2023-05-08T01:33:08.569Z,6.72
2023-05-08T01:35:52.417Z,6.78
2023-05-08T01:38:25.638Z,6.20
2023-05-08T01:41:02.282Z,7.38
2023-05-08T01:43:52.673Z,7.68
2023-05-08T01:46:24.165Z,6.40
2023-05-08T01:49:25.813Z,6.32
2023-05-08T01:52:32.129Z,6.40
2023-05-08T01:55:10.848Z,7.63
2023-05-08T01:57:46.112Z,7.25
2023-05-08T02:00:17.344Z,7.80
2023-05-08T02:02:46.860Z,7.20
2023-05-08T02:05:18.933Z,7.15
2023-05-08T02:07:52.096Z,7.55
2023-05-08T02:10:20.910Z,7.07
2023-05-08T02:12:50.087Z,7.97
2023-05-08T02:15:18.997Z,6.70
2023-05-08T02:17:51.189Z,7.88
2023-05-08T02:22:53.458Z,7.10
2023-05-08T02:25:21.830Z,8.20
2023-05-08T02:27:53.688Z,7.60
2023-05-08T02:30:27.220Z,8.82
2023-05-08T02:33:01.805Z,7.00
2023-05-08T02:35:32.429Z,8.65
2023-05-08T02:38:01.540Z,7.82
2023-05-08T02:40:31.104Z,8.27
2023-05-08T02:42:59.571Z,8.18
2023-05-08T02:45:37.177Z,9.48
2023-05-08T02:48:16.015Z,8.25
2023-05-08T02:50:59.875Z,7.90
2023-05-08T02:53:36.101Z,8.15
2023-05-08T02:56:28.348Z,9.02
2023-05-08T02:59:19.082Z,10.60
2023-05-08T03:02:05.386Z,7.18
2023-05-08T03:04:37.589Z,8.73
2023-05-08T03:09:48.868Z,7.25
2023-05-08T03:12:22.239Z,7.65
2023-05-08T03:15:04.198Z,8.13
2023-05-08T03:17:33.848Z,8.75
2023-05-08T03:20:06.002Z,7.43
2023-05-08T03:22:37.083Z,10.50
2023-05-08T03:25:07.067Z,8.98
2023-05-08T03:27:37.659Z,8.85
2023-05-08T03:30:06.285Z,8.20
2023-05-08T03:32:36.955Z,8.88
2023-05-08T03:35:05.698Z,8.80
2023-05-08T03:37:33.153Z,9.07
2023-05-08T03:40:03.844Z,10.27
2023-05-08T03:42:31.653Z,8.60
2023-05-08T03:45:03.681Z,9.05
2023-05-08T03:47:32.370Z,8.80
2023-05-08T03:50:00.570Z,7.82
2023-05-08T03:52:27.799Z,9.43
2023-05-08T03:54:55.199Z,7.40
2023-05-08T03:57:25.506Z,9.32
2023-05-08T04:00:10.006Z,10.27
2023-05-08T04:03:30.430Z,8.15
2023-05-08T04:06:11.328Z,8.55
2023-05-08T04:09:02.305Z,9.35
2023-05-08T04:11:48.057Z,9.52
2023-05-08T04:14:21.371Z,7.82
2023-05-08T04:16:56.618Z,8.38
2023-05-08T04:19:29.559Z,8.77
2023-05-08T04:22:01.605Z,9.70
2023-05-08T04:24:30.650Z,9.40
2023-05-08T04:26:58.176Z,9.30
2023-05-08T04:29:25.805Z,8.30
2023-05-08T04:31:53.850Z,8.27
2023-05-08T04:34:21.247Z,9.15
2023-05-08T04:36:48.749Z,8.35
2023-05-08T04:39:15.949Z,8.65
2023-05-08T04:41:43.231Z,7.53
2023-05-08T04:44:13.607Z,8.65
2023-05-08T04:46:40.801Z,9.20
2023-05-08T04:49:09.842Z,9.63
2023-05-08T04:51:39.447Z,9.10
2023-05-08T04:54:06.472Z,8.55
2023-05-08T04:56:33.859Z,9.50
2023-05-08T04:59:00.968Z,9.60
2023-05-08T05:01:28.146Z,8.40
2023-05-08T05:03:55.427Z,9.70
2023-05-08T05:06:22.621Z,8.48
2023-05-08T05:08:49.753Z,9.57
2023-05-08T05:11:17.590Z,8.70
2023-05-08T05:13:45.120Z,8.25
2023-05-08T05:16:13.497Z,8.73
2023-05-08T05:18:40.858Z,9.25
2023-05-08T05:21:07.912Z,9.90
2023-05-08T05:23:36.735Z,9.90
2023-05-08T05:26:03.992Z,9.10
2023-05-08T05:28:31.389Z,10.85
2023-05-08T05:31:00.797Z,8.98
2023-05-08T05:33:30.152Z,9.52
2023-05-08T05:35:57.305Z,10.82
2023-05-08T05:38:29.494Z,8.98
2023-05-08T05:40:56.664Z,9.45
2023-05-08T05:43:23.732Z,10.48
2023-05-08T05:45:51.278Z,9.55
2023-05-08T05:48:18.436Z,9.75
2023-05-08T05:50:46.334Z,8.27
2023-05-08T05:53:15.401Z,9.77
2023-05-08T05:55:42.501Z,8.73
2023-05-08T05:58:09.791Z,9.93
2023-05-08T06:00:37.040Z,10.55
2023-05-08T06:03:04.811Z,11.15
2023-05-08T06:05:31.817Z,10.15
2023-05-08T06:07:59.622Z,10.27
2023-05-08T06:10:29.361Z,9.95
2023-05-08T06:12:57.040Z,10.82
2023-05-08T06:15:25.545Z,10.80
2023-05-08T06:17:54.200Z,12.07
2023-05-08T06:20:21.739Z,11.70
2023-05-08T06:22:48.709Z,12.05
2023-05-08T06:25:16.339Z,12.15
2023-05-08T06:27:43.350Z,14.52
2023-05-08T06:30:12.113Z,15.27
2023-05-08T06:32:39.216Z,14.00
2023-05-08T06:35:06.825Z,14.32
2023-05-08T06:37:33.852Z,14.65
2023-05-08T06:40:11.677Z,15.43
2023-05-08T06:42:40.324Z,16.52
2023-05-08T06:45:11.372Z,13.50
2023-05-08T06:47:38.748Z,16.27
2023-05-08T06:50:06.835Z,14.52
2023-05-08T06:52:33.942Z,14.93
2023-05-08T06:55:01.129Z,16.35
2023-05-08T06:57:30.323Z,14.82
2023-05-08T06:59:59.406Z,18.10
2023-05-08T07:02:26.876Z,13.10
2023-05-08T07:04:54.004Z,16.02
2023-05-08T07:07:21.027Z,15.70
2023-05-08T07:09:48.066Z,17.08
2023-05-08T07:12:16.806Z,14.10
2023-05-08T07:14:43.997Z,15.38
2023-05-08T07:17:11.103Z,16.25
2023-05-08T07:19:38.771Z,14.93
2023-05-08T07:22:06.366Z,16.60
2023-05-08T07:24:33.779Z,14.85
2023-05-08T07:27:01.300Z,16.15
2023-05-08T07:29:28.543Z,18.65
2023-05-08T07:31:55.602Z,14.85
2023-05-08T07:34:22.698Z,15.25
2023-05-08T07:36:49.714Z,16.67
2023-05-08T07:39:16.808Z,17.60
2023-05-08T07:41:43.937Z,17.75
2023-05-08T07:44:13.429Z,15.63
2023-05-08T07:46:40.719Z,15.80
2023-05-08T07:49:07.898Z,15.65
2023-05-08T07:51:34.956Z,17.70
2023-05-08T07:54:01.986Z,15.30
2023-05-08T07:56:29.030Z,15.52
2023-05-08T07:58:56.095Z,17.63
2023-05-08T08:01:23.136Z,14.73
2023-05-08T08:03:50.398Z,15.50
2023-05-08T08:06:18.604Z,14.13
2023-05-08T08:08:45.748Z,14.90
2023-05-08T08:11:12.863Z,16.50
2023-05-08T08:13:40.429Z,14.45
2023-05-08T08:16:07.398Z,15.60
2023-05-08T08:18:36.666Z,18.08
2023-05-08T08:21:07.653Z,14.80
2023-05-08T08:23:35.071Z,13.80
2023-05-08T08:26:02.161Z,18.15
2023-05-08T08:28:29.212Z,20.75
2023-05-08T08:30:56.340Z,18.77
2023-05-08T08:33:23.798Z,20.27
2023-05-08T08:35:50.778Z,17.67
2023-05-08T08:38:17.843Z,17.70
2023-05-08T08:40:44.991Z,17.40
2023-05-08T08:43:12.040Z,17.17
2023-05-08T08:45:39.034Z,18.65
2023-05-08T08:48:11.979Z,18.05
2023-05-08T08:50:53.463Z,18.30
2023-05-08T08:53:42.141Z,14.38
2023-05-08T08:56:11.248Z,16.55
2023-05-08T08:59:04.752Z,15.48
2023-05-08T09:01:36.223Z,18.08
2023-05-08T09:04:03.442Z,17.52
2023-05-08T09:06:30.544Z,16.08
2023-05-08T09:08:58.778Z,17.08
2023-05-08T09:11:25.971Z,17.92
2023-05-08T09:13:53.054Z,20.27
2023-05-08T09:16:20.183Z,19.58
2023-05-08T09:18:47.303Z,21.83
2023-05-08T09:21:17.859Z,16.83
2023-05-08T09:24:00.995Z,17.23
2023-05-08T09:26:50.054Z,20.38
2023-05-08T09:29:18.882Z,28.55
2023-05-08T09:31:47.758Z,29.60
2023-05-08T09:34:33.126Z,24.15
2023-05-08T09:37:06.061Z,29.17
2023-05-08T09:39:33.317Z,21.70
2023-05-08T09:42:05.085Z,16.40
2023-05-08T09:44:46.715Z,16.90
2023-05-08T09:47:19.864Z,14.48
2023-05-08T09:50:05.419Z,19.73
2023-05-08T09:52:34.335Z,18.77
2023-05-08T09:55:08.639Z,15.50
2023-05-08T09:57:41.056Z,23.92
2023-05-08T10:00:11.660Z,22.40
2023-05-08T10:02:45.268Z,19.83
2023-05-08T10:05:33.347Z,20.65
2023-05-08T10:08:25.343Z,24.83
2023-05-08T10:10:53.481Z,19.60
2023-05-08T10:13:21.272Z,15.48
2023-05-08T10:15:54.402Z,12.95
2023-05-08T10:18:26.230Z,13.57
2023-05-08T10:20:56.178Z,13.52
2023-05-08T10:23:23.210Z,12.65
2023-05-08T10:26:00.240Z,15.30
2023-05-08T10:28:36.181Z,16.55
2023-05-08T10:31:05.724Z,16.38
2023-05-08T10:33:35.018Z,15.43
2023-05-08T10:36:02.165Z,16.40
2023-05-08T10:38:33.507Z,13.85
2023-05-08T10:41:01.587Z,14.45
2023-05-08T10:43:31.138Z,13.02
2023-05-08T10:46:07.825Z,14.18
2023-05-08T10:48:54.241Z,13.25
2023-05-08T10:51:47.410Z,17.20
2023-05-08T10:54:22.949Z,12.93
2023-05-08T10:56:49.869Z,12.07
2023-05-08T10:59:21.227Z,14.85
2023-05-08T11:01:51.699Z,17.75
2023-05-08T11:04:25.036Z,23.45
2023-05-08T11:06:54.560Z,21.33
2023-05-08T11:09:23.735Z,20.70
2023-05-08T11:12:16.531Z,22.77
2023-05-08T11:14:53.340Z,22.08
2023-05-08T11:17:24.784Z,18.80
2023-05-08T11:19:58.830Z,23.33
2023-05-08T11:22:33.616Z,23.10
2023-05-08T11:25:09.444Z,21.67
2023-05-08T11:27:48.593Z,19.10
2023-05-08T11:30:32.505Z,19.50
2023-05-08T11:33:14.722Z,21.08
2023-05-08T11:38:32.253Z,19.75
2023-05-08T11:41:21.798Z,16.85
2023-05-08T11:44:09.774Z,19.42
2023-05-08T11:46:43.969Z,16.23
2023-05-08T11:49:12.760Z,18.67
2023-05-08T11:51:44.767Z,20.15
2023-05-08T11:56:47.900Z,16.48
2023-05-08T11:59:16.395Z,16.95
2023-05-08T12:01:48.527Z,17.40
2023-05-08T12:04:23.729Z,18.58
2023-05-08T12:06:57.052Z,16.38
2023-05-08T12:09:24.527Z,14.73
2023-05-08T12:11:58.134Z,14.68
2023-05-08T12:14:25.200Z,16.73
2023-05-08T12:16:52.074Z,16.05
2023-05-08T12:19:19.200Z,15.82
2023-05-08T12:21:51.381Z,15.75
2023-05-08T12:24:25.541Z,15.52
2023-05-08T12:26:56.821Z,17.35
2023-05-08T12:29:24.137Z,17.13
2023-05-08T12:31:52.734Z,16.40
2023-05-08T12:34:20.741Z,15.27
2023-05-08T12:36:47.733Z,16.45
2023-05-08T12:39:19.080Z,15.73
2023-05-08T12:41:53.107Z,16.60
2023-05-08T12:44:22.444Z,15.63
2023-05-08T12:46:53.765Z,15.57
2023-05-08T12:49:31.623Z,16.10
2023-05-08T12:52:09.555Z,13.48
2023-05-08T12:54:38.688Z,16.88
2023-05-08T12:57:13.505Z,16.10
2023-05-08T12:59:42.019Z,15.80
2023-05-08T13:02:21.570Z,18.90
2023-05-08T13:04:53.619Z,16.70
2023-05-08T13:07:20.839Z,18.02
2023-05-08T13:10:03.863Z,14.05
2023-05-08T13:12:31.652Z,16.25
2023-05-08T13:15:01.638Z,15.93
2023-05-08T13:17:37.799Z,15.38
2023-05-08T13:20:06.184Z,17.88
2023-05-08T13:22:36.208Z,17.55
2023-05-08T13:25:06.337Z,16.95
2023-05-08T13:27:33.730Z,14.55
2023-05-08T13:30:00.928Z,16.95
2023-05-08T13:32:29.321Z,15.52
2023-05-08T13:34:58.828Z,17.77
2023-05-08T13:37:30.245Z,16.02
2023-05-08T13:39:57.436Z,14.23
2023-05-08T13:42:26.468Z,13.77
2023-05-08T13:44:55.148Z,14.77
2023-05-08T13:47:22.259Z,13.75
2023-05-08T13:49:50.417Z,14.63
2023-05-08T13:52:17.798Z,15.35
2023-05-08T13:54:44.732Z,12.35
2023-05-08T13:57:11.793Z,14.05
2023-05-08T13:59:42.120Z,13.90
2023-05-08T14:02:09.432Z,11.55
2023-05-08T14:04:36.605Z,12.32
2023-05-08T14:07:03.592Z,11.70
2023-05-08T14:09:30.659Z,12.25
2023-05-08T14:12:00.049Z,11.68
2023-05-08T14:14:27.113Z,16.05
2023-05-08T14:16:54.074Z,12.88
2023-05-08T14:19:21.322Z,10.80
2023-05-08T14:21:51.511Z,11.77
2023-05-08T14:24:18.521Z,10.38
2023-05-08T14:26:45.409Z,9.65
2023-05-08T14:29:12.414Z,10.52
2023-05-08T14:31:39.417Z,11.85
2023-05-08T14:34:06.433Z,17.10
2023-05-08T14:36:33.504Z,12.43
2023-05-08T14:39:02.738Z,11.43
2023-05-08T14:41:30.988Z,10.23
2023-05-08T14:43:58.916Z,8.68
2023-05-08T14:46:26.077Z,9.18
2023-05-08T14:48:54.252Z,12.07
2023-05-08T14:51:21.905Z,12.05
2023-05-08T14:53:48.988Z,11.30
2023-05-08T14:56:16.326Z,13.13
2023-05-08T14:58:43.456Z,12.27
2023-05-08T15:01:10.729Z,12.45
2023-05-08T15:03:38.028Z,12.18
2023-05-08T15:06:05.593Z,14.82
2023-05-08T15:08:32.577Z,12.52
2023-05-08T15:10:59.822Z,14.88
2023-05-08T15:13:27.089Z,12.48
2023-05-08T15:15:54.494Z,12.75
2023-05-08T15:18:23.283Z,13.60
2023-05-08T15:20:50.255Z,12.30
2023-05-08T15:23:20.467Z,14.70
2023-05-08T15:25:47.530Z,14.93
2023-05-08T15:28:14.522Z,13.35
2023-05-08T15:30:41.660Z,11.55
2023-05-08T15:33:08.953Z,14.88
2023-05-08T15:35:36.387Z,10.15
2023-05-08T15:38:07.723Z,11.80
2023-05-08T15:40:34.883Z,13.38
2023-05-08T15:43:02.149Z,12.07
2023-05-08T15:45:29.386Z,12.15
2023-05-08T15:47:56.537Z,12.00
2023-05-08T15:50:23.775Z,13.07
2023-05-08T15:52:50.749Z,11.48
2023-05-08T15:55:17.973Z,11.45
2023-05-08T15:57:44.990Z,11.65
2023-05-08T16:00:12.609Z,12.65
2023-05-08T16:02:42.240Z,11.00
2023-05-08T16:05:12.542Z,10.65
2023-05-08T16:07:39.678Z,12.25
2023-05-08T16:10:07.759Z,10.75
2023-05-08T16:12:34.825Z,11.40
2023-05-08T16:15:01.816Z,12.40
2023-05-08T16:17:30.088Z,12.18
2023-05-08T16:19:58.460Z,11.30
2023-05-08T16:22:25.568Z,10.35
2023-05-08T16:24:55.762Z,9.52
2023-05-08T16:27:22.887Z,9.55
2023-05-08T16:29:49.957Z,11.65
2023-05-08T16:36:45.644Z,9.07
2023-05-08T16:39:12.715Z,9.35
2023-05-08T16:41:39.682Z,8.82
2023-05-08T16:44:06.787Z,10.93
2023-05-08T16:46:34.038Z,8.90
2023-05-08T16:49:01.031Z,10.38
2023-05-08T16:51:28.270Z,9.32
2023-05-08T16:53:57.396Z,9.55
2023-05-08T16:56:25.254Z,11.48
2023-05-08T16:58:54.621Z,11.15
2023-05-08T17:01:22.102Z,13.07
2023-05-08T17:03:51.799Z,10.55
2023-05-08T17:06:19.941Z,10.50
2023-05-08T17:08:47.094Z,9.68
2023-05-08T17:11:14.194Z,10.40
2023-05-08T17:13:43.193Z,12.25
2023-05-08T17:16:10.304Z,16.52
2023-05-08T17:18:37.421Z,15.10
2023-05-08T17:21:04.769Z,14.95
2023-05-08T17:23:31.860Z,14.30
2023-05-08T17:26:00.080Z,13.68
2023-05-08T17:28:29.949Z,11.85
2023-05-08T17:30:57.029Z,11.07
2023-05-08T17:33:26.994Z,11.40
2023-05-08T17:35:58.368Z,12.90
2023-05-08T17:38:25.784Z,12.80
2023-05-08T17:40:56.719Z,10.93
2023-05-08T17:43:36.264Z,11.20
2023-05-08T17:46:06.225Z,8.90
2023-05-08T17:48:34.458Z,10.15
2023-05-08T17:51:05.197Z,7.80
2023-05-08T17:53:32.862Z,7.13
2023-05-08T17:55:59.996Z,8.90
2023-05-08T17:58:28.411Z,7.50
2023-05-08T18:00:56.108Z,8.35
2023-05-08T18:03:23.441Z,7.20
2023-05-08T18:06:13.646Z,8.95
2023-05-08T18:08:43.181Z,9.77
2023-05-08T18:11:23.350Z,10.25
2023-05-08T18:13:55.205Z,9.95
2023-05-08T18:16:23.081Z,9.18
2023-05-08T18:18:50.622Z,11.70
2023-05-08T18:21:18.182Z,9.32
2023-05-08T18:23:45.432Z,10.98
2023-05-08T18:26:16.441Z,11.77
2023-05-08T18:28:44.152Z,9.32
2023-05-08T18:31:16.394Z,9.82
2023-05-08T18:33:46.263Z,12.02
2023-05-08T18:36:14.002Z,10.32
2023-05-08T18:38:41.840Z,10.68
2023-05-08T18:41:09.037Z,10.40
2023-05-08T18:43:36.309Z,8.82
2023-05-08T18:46:12.640Z,12.43
2023-05-08T18:48:41.109Z,11.13
2023-05-08T18:51:08.180Z,11.23
2023-05-08T18:53:38.591Z,12.13
2023-05-08T18:56:06.433Z,12.73
2023-05-08T18:58:33.574Z,12.40
2023-05-08T19:01:01.444Z,12.93
2023-05-08T19:03:31.867Z,13.13
2023-05-08T19:06:01.495Z,13.82
2023-05-08T19:08:31.341Z,11.48
2023-05-08T19:10:59.182Z,12.73
2023-05-08T19:13:26.400Z,16.13
2023-05-08T19:15:54.619Z,12.55
2023-05-08T19:18:24.163Z,14.05
2023-05-08T19:20:51.363Z,15.18
2023-05-08T19:23:21.126Z,14.27
2023-05-08T19:25:48.205Z,13.73
2023-05-08T19:28:21.082Z,11.00
2023-05-08T19:30:48.129Z,15.65
2023-05-08T19:33:15.282Z,15.55
2023-05-08T19:35:43.200Z,14.32
2023-05-08T19:38:10.348Z,15.52
2023-05-08T19:40:51.990Z,14.52
2023-05-08T19:43:27.972Z,13.65
2023-05-08T19:45:56.187Z,17.17
2023-05-08T19:48:23.729Z,14.70
2023-05-08T19:50:53.545Z,14.05
2023-05-08T19:53:24.646Z,15.13
2023-05-08T19:55:53.862Z,16.13
2023-05-08T19:58:21.046Z,14.40
2023-05-08T20:03:50.402Z,15.50
2023-05-08T20:06:17.651Z,14.05
2023-05-08T20:08:44.796Z,14.75
2023-05-08T20:11:14.396Z,15.52
2023-05-08T20:13:41.750Z,14.52
2023-05-08T20:16:09.190Z,17.02
2023-05-08T20:18:36.537Z,15.68
2023-05-08T20:21:06.529Z,15.70
2023-05-08T20:23:33.808Z,16.00
2023-05-08T20:26:00.873Z,16.85
2023-05-08T20:28:28.151Z,13.65
2023-05-08T20:30:55.465Z,16.77
2023-05-08T20:33:25.557Z,16.02
2023-05-08T20:35:53.343Z,18.05
2023-05-08T20:38:20.899Z,15.15
2023-05-08T20:40:48.210Z,16.42
2023-05-08T20:43:19.277Z,12.90
2023-05-08T20:45:46.781Z,13.95
2023-05-08T20:48:14.182Z,14.07
2023-05-08T20:50:45.908Z,14.70
2023-05-08T20:53:16.146Z,15.35
2023-05-08T20:55:46.321Z,15.40
2023-05-08T20:58:13.586Z,12.63
2023-05-08T21:00:40.860Z,15.15
2023-05-08T21:03:08.102Z,14.85
2023-05-08T21:05:35.257Z,13.10
2023-05-08T21:08:03.611Z,16.60
2023-05-08T21:10:31.610Z,17.77
2023-05-08T21:13:01.043Z,15.95
2023-05-08T21:15:28.784Z,14.45
2023-05-08T21:17:58.665Z,16.17
2023-05-08T21:20:26.099Z,18.95
2023-05-08T21:22:56.589Z,22.80
2023-05-08T21:25:52.734Z,25.27
2023-05-08T21:28:20.131Z,31.15
2023-05-08T21:30:49.716Z,27.83
2023-05-08T21:33:17.556Z,29.67
2023-05-08T21:35:47.663Z,29.08
2023-05-08T21:38:14.962Z,29.92
2023-05-08T21:40:44.912Z,30.88
2023-05-08T21:43:14.514Z,25.90
2023-05-08T21:48:11.634Z,31.50
2023-05-08T21:50:39.054Z,42.47
2023-05-08T21:53:06.372Z,39.10
2023-05-08T21:55:33.573Z,35.83
2023-05-08T21:58:01.007Z,33.45
2023-05-08T22:00:28.167Z,33.17
2023-05-08T22:02:55.389Z,25.35
2023-05-08T22:05:24.372Z,23.95
2023-05-08T22:07:51.645Z,25.73
2023-05-08T22:10:18.818Z,25.15
2023-05-08T22:12:51.259Z,23.85
2023-05-08T22:15:29.225Z,25.38
2023-05-08T22:18:00.333Z,23.30
2023-05-08T22:20:27.749Z,25.70
2023-05-08T22:22:56.176Z,31.15
2023-05-08T22:25:23.405Z,28.75
2023-05-08T22:27:50.835Z,26.92
2023-05-08T22:30:18.051Z,28.00
2023-05-08T22:32:48.798Z,26.48
2023-05-08T22:35:16.089Z,25.23
2023-05-08T22:37:43.240Z,25.30
2023-05-08T22:40:26.359Z,22.38
2023-05-08T22:42:58.889Z,22.50
2023-05-08T22:45:34.411Z,20.58
2023-05-08T22:48:01.966Z,22.52
2023-05-08T22:50:52.178Z,19.02
2023-05-08T22:53:39.704Z,23.48
2023-05-08T22:56:10.029Z,21.67
2023-05-08T22:58:47.841Z,19.35
2023-05-08T23:01:21.403Z,21.33
2023-05-08T23:03:52.513Z,20.35
2023-05-08T23:06:22.576Z,18.50
2023-05-08T23:08:49.885Z,20.67
2023-05-08T23:14:56.057Z,21.65
2023-05-08T23:17:43.872Z,22.98
2023-05-08T23:20:14.737Z,20.63
2023-05-08T23:22:42.191Z,23.60
2023-05-08T23:25:14.893Z,19.45
2023-05-08T23:28:06.807Z,17.30
2023-05-08T23:34:34.927Z,23.33
2023-05-08T23:45:44.148Z,20.70
2023-05-08T23:48:11.554Z,22.42
2023-05-08T23:50:39.101Z,20.27
2023-05-08T23:53:06.612Z,19.38
2023-05-08T23:55:39.539Z,21.23
2023-05-08T23:58:06.813Z,20.33
